createdAt,value
2022-12-18T00:03:09.625Z,102393.41
2022-12-18T00:08:11.286Z,102388.41
2022-12-18T00:13:13.259Z,102398.75
2022-12-18T00:18:18.930Z,102399.53
2022-12-18T00:23:21.910Z,102397.06
2022-12-18T00:28:23.227Z,102386.22
2022-12-18T00:33:24.545Z,102397.25
2022-12-18T00:38:25.852Z,102396.38
2022-12-18T00:43:27.246Z,102396.50
2022-12-18T00:48:28.542Z,102400.66
2022-12-18T00:53:29.841Z,102413.34
2022-12-18T00:58:31.138Z,102404.19
2022-12-18T01:03:32.479Z,102403.59
2022-12-18T01:08:34.028Z,102398.50
2022-12-18T01:13:35.586Z,102402.84
2022-12-18T01:18:37.118Z,102398.91
2022-12-18T01:23:39.179Z,102403.78
2022-12-18T01:28:41.275Z,102398.63
2022-12-18T01:33:42.971Z,102397.78
2022-12-18T01:38:44.501Z,102391.84
2022-12-18T01:43:50.873Z,102401.16
2022-12-18T01:48:54.815Z,102395.44
2022-12-18T01:53:56.295Z,102397.97
2022-12-18T01:59:02.367Z,102409.72
2022-12-18T02:04:20.650Z,102406.59
2022-12-18T02:09:25.228Z,102396.38
2022-12-18T02:14:39.222Z,102392.13
2022-12-18T02:19:52.684Z,102382.00
2022-12-18T02:24:53.970Z,102391.94
2022-12-18T02:29:58.842Z,102397.00
2022-12-18T02:35:01.504Z,102393.78
2022-12-18T02:40:04.447Z,102397.97
2022-12-18T02:45:06.278Z,102402.13
2022-12-18T02:50:26.267Z,102398.22
2022-12-18T02:55:46.099Z,102387.13
2022-12-18T03:00:56.574Z,102378.88
2022-12-18T03:06:01.212Z,102371.25
2022-12-18T03:11:03.989Z,102377.13
2022-12-18T03:16:07.463Z,102384.78
2022-12-18T03:21:10.769Z,102380.34
2022-12-18T03:26:13.575Z,102375.41
2022-12-18T03:31:15.176Z,102367.09
2022-12-18T03:36:16.664Z,102363.75
2022-12-18T03:41:17.984Z,102358.22
2022-12-18T03:46:39.569Z,102352.22
2022-12-18T03:51:40.873Z,102353.81
2022-12-18T03:56:48.930Z,102358.00
2022-12-18T04:01:53.360Z,102357.16
2022-12-18T04:06:55.776Z,102358.88
2022-12-18T04:11:57.125Z,102347.13
2022-12-18T04:16:58.496Z,102343.56
2022-12-18T04:21:59.805Z,102347.81
2022-12-18T04:27:01.124Z,102347.66
2022-12-18T04:32:02.471Z,102346.84
2022-12-18T04:37:04.271Z,102340.22
2022-12-18T04:42:05.609Z,102344.50
2022-12-18T04:47:06.985Z,102338.63
2022-12-18T04:52:08.329Z,102330.22
2022-12-18T04:57:09.665Z,102351.31
2022-12-18T05:02:11.124Z,102340.38
2022-12-18T05:07:12.609Z,102325.22
2022-12-18T05:12:13.933Z,102321.13
2022-12-18T05:17:15.277Z,102329.47
2022-12-18T05:22:16.742Z,102325.22
2022-12-18T05:27:20.252Z,102315.97
2022-12-18T05:32:21.602Z,102312.88
2022-12-18T05:37:22.907Z,102321.06
2022-12-18T05:42:24.237Z,102320.88
2022-12-18T05:47:25.550Z,102330.72
2022-12-18T05:52:26.901Z,102331.94
2022-12-18T05:57:28.345Z,102337.19
2022-12-18T06:02:29.784Z,102333.00
2022-12-18T06:07:31.169Z,102340.75
2022-12-18T06:12:34.397Z,102349.19
2022-12-18T06:17:36.152Z,102352.50
2022-12-18T06:22:37.479Z,102363.28
2022-12-18T06:27:38.842Z,102359.19
2022-12-18T06:32:40.157Z,102371.00
2022-12-18T06:37:41.702Z,102365.94
2022-12-18T06:42:43.010Z,102370.22
2022-12-18T06:47:44.349Z,102363.50
2022-12-18T06:52:45.674Z,102352.56
2022-12-18T06:57:47.134Z,102364.38
2022-12-18T07:02:48.536Z,102353.28
2022-12-18T07:07:49.948Z,102358.25
2022-12-18T07:12:51.255Z,102356.38
2022-12-18T07:17:52.572Z,102359.59
2022-12-18T07:22:56.374Z,102371.22
2022-12-18T07:27:57.869Z,102383.84
2022-12-18T07:32:59.730Z,102377.09
2022-12-18T07:38:01.232Z,102371.19
2022-12-18T07:43:02.674Z,102383.81
2022-12-18T07:48:04.243Z,102364.53
2022-12-18T07:53:05.968Z,102367.06
2022-12-18T07:58:07.302Z,102372.00
2022-12-18T08:03:08.702Z,102379.66
2022-12-18T08:08:11.047Z,102368.66
2022-12-18T08:13:12.365Z,102358.56
2022-12-18T08:18:14.548Z,102344.94
2022-12-18T08:23:16.069Z,102334.53
2022-12-18T08:28:17.403Z,102332.28
2022-12-18T08:33:18.956Z,102306.59
2022-12-18T08:38:20.283Z,102321.44
2022-12-18T08:43:40.400Z,102321.91
2022-12-18T08:48:42.138Z,102321.78
2022-12-18T08:53:43.973Z,102324.81
2022-12-18T08:58:45.460Z,102317.97
2022-12-18T09:03:46.778Z,102335.72
2022-12-18T09:08:48.243Z,102338.22
2022-12-18T09:13:49.768Z,102320.41
2022-12-18T09:18:51.099Z,102324.03
2022-12-18T09:23:52.976Z,102318.50
2022-12-18T09:28:54.359Z,102330.09
2022-12-18T09:33:56.203Z,102316.28
2022-12-18T09:38:57.520Z,102310.38
2022-12-18T09:44:01.632Z,102297.75
2022-12-18T09:49:06.003Z,102294.41
2022-12-18T09:54:22.978Z,102282.00
2022-12-18T09:59:37.964Z,102284.91
2022-12-18T10:04:39.372Z,102280.16
2022-12-18T10:10:00.981Z,102259.31
2022-12-18T10:15:08.095Z,102266.38
2022-12-18T10:20:25.666Z,102255.19
2022-12-18T10:25:35.576Z,102255.75
2022-12-18T10:30:36.877Z,102267.38
2022-12-18T10:35:41.936Z,102252.63
2022-12-18T10:40:51.136Z,102255.44
2022-12-18T10:46:03.002Z,102252.16
2022-12-18T10:51:12.831Z,102244.53
2022-12-18T10:56:20.629Z,102237.06
2022-12-18T11:01:22.088Z,102229.16
2022-12-18T11:06:25.459Z,102241.09
2022-12-18T11:11:27.134Z,102249.72
2022-12-18T11:16:29.121Z,102249.09
2022-12-18T11:21:30.512Z,102232.72
2022-12-18T11:26:35.452Z,102235.63
2022-12-18T11:31:36.929Z,102236.91
2022-12-18T11:36:46.187Z,102230.97
2022-12-18T11:42:19.927Z,102237.13
2022-12-18T11:47:30.688Z,102245.56
2022-12-18T11:52:35.107Z,102227.09
2022-12-18T11:57:55.088Z,102222.41
2022-12-18T12:03:02.684Z,102206.28
2022-12-18T12:08:06.886Z,102188.97
2022-12-18T12:13:11.646Z,102196.44
2022-12-18T12:18:30.959Z,102184.34
2022-12-18T12:23:51.245Z,102167.31
2022-12-18T12:29:10.437Z,102158.16
2022-12-18T12:34:14.836Z,102159.91
2022-12-18T12:39:18.984Z,102134.75
2022-12-18T12:44:24.105Z,102118.63
2022-12-18T12:49:28.804Z,102139.31
2022-12-18T12:54:32.763Z,102124.69
2022-12-18T12:59:43.132Z,102127.28
2022-12-18T13:04:57.873Z,102124.59
2022-12-18T13:10:11.789Z,102125.97
2022-12-18T13:15:44.265Z,102121.16
2022-12-18T13:20:55.361Z,102130.63
2022-12-18T13:26:07.265Z,102122.88
2022-12-18T13:31:08.669Z,102118.53
2022-12-18T13:36:16.191Z,102125.84
2022-12-18T13:41:21.458Z,102119.41
2022-12-18T13:46:30.029Z,102127.72
2022-12-18T13:51:32.718Z,102124.66
2022-12-18T13:56:35.156Z,102114.56
2022-12-18T14:01:36.924Z,102125.16
2022-12-18T14:06:38.594Z,102120.19
2022-12-18T14:11:39.935Z,102114.03
2022-12-18T14:16:42.087Z,102121.41
2022-12-18T14:21:49.028Z,102114.25
2022-12-18T14:26:50.969Z,102109.31
2022-12-18T14:32:17.516Z,102108.50
2022-12-18T14:37:22.253Z,102097.56
2022-12-18T14:42:23.596Z,102089.13
2022-12-18T14:47:24.950Z,102083.41
2022-12-18T14:52:28.960Z,102087.84
2022-12-18T14:57:36.167Z,102083.59
2022-12-18T15:02:37.794Z,102088.09
2022-12-18T15:07:46.435Z,102084.75
2022-12-18T15:12:49.330Z,102077.78
2022-12-18T15:17:57.176Z,102088.88
2022-12-18T15:22:58.531Z,102077.66
2022-12-18T15:27:59.880Z,102073.38
2022-12-18T15:33:20.023Z,102078.50
2022-12-18T15:38:21.359Z,102066.50
2022-12-18T15:43:36.108Z,102080.22
2022-12-18T15:48:41.083Z,102087.00
2022-12-18T15:53:43.304Z,102082.50
2022-12-18T15:58:45.024Z,102089.44
2022-12-18T16:03:46.607Z,102087.69
2022-12-18T16:08:48.356Z,102091.22
2022-12-18T16:13:49.669Z,102087.97
2022-12-18T16:18:52.863Z,102088.19
2022-12-18T16:23:54.378Z,102078.97
2022-12-18T16:28:56.314Z,102062.75
2022-12-18T16:34:16.393Z,102066.97
2022-12-18T16:39:19.650Z,102067.09
2022-12-18T16:44:21.269Z,102054.31
2022-12-18T16:49:22.674Z,102059.34
2022-12-18T16:54:24.129Z,102055.97
2022-12-18T16:59:26.813Z,102061.09
2022-12-18T17:04:28.318Z,102061.22
2022-12-18T17:09:29.674Z,102064.63
2022-12-18T17:14:32.019Z,102070.59
2022-12-18T17:19:33.438Z,102064.63
2022-12-18T17:24:35.571Z,102082.56
2022-12-18T17:29:39.120Z,102077.41
2022-12-18T17:34:45.150Z,102068.88
2022-12-18T17:39:46.463Z,102071.44
2022-12-18T17:44:47.792Z,102061.22
2022-12-18T17:49:49.098Z,102063.63
2022-12-18T17:54:50.462Z,102052.69
2022-12-18T17:59:51.782Z,102042.47
2022-12-18T18:04:53.114Z,102035.53
2022-12-18T18:09:54.465Z,102033.81
2022-12-18T18:14:55.810Z,102017.63
2022-12-18T18:19:57.157Z,102017.63
2022-12-18T18:24:58.453Z,102003.94
2022-12-18T18:29:59.798Z,101996.22
2022-12-18T18:35:01.142Z,101996.22
2022-12-18T18:40:03.484Z,101997.72
2022-12-18T18:45:04.977Z,102001.81
2022-12-18T18:50:06.668Z,101996.41
2022-12-18T18:55:25.277Z,101993.88
2022-12-18T19:00:27.489Z,101997.03
2022-12-18T19:05:31.183Z,101984.94
2022-12-18T19:10:32.583Z,101976.31
2022-12-18T19:15:34.205Z,101979.53
2022-12-18T19:20:35.714Z,101971.81
2022-12-18T19:25:41.662Z,101967.44
2022-12-18T19:30:43.759Z,101972.28
2022-12-18T19:35:45.195Z,101943.06
2022-12-18T19:40:46.884Z,101953.19
2022-12-18T19:45:54.139Z,101975.16
2022-12-18T19:50:55.917Z,101985.09
2022-12-18T19:55:57.367Z,101980.75
2022-12-18T20:00:58.745Z,101971.19
2022-12-18T20:06:19.474Z,101965.84
2022-12-18T20:11:21.065Z,101956.16
2022-12-18T20:16:22.640Z,101943.38
2022-12-18T20:21:25.178Z,101954.38
2022-12-18T20:26:26.842Z,101947.38
2022-12-18T20:31:28.259Z,101960.44
2022-12-18T20:36:30.767Z,101959.47
2022-12-18T20:41:37.641Z,101958.50
2022-12-18T20:46:40.261Z,101971.00
2022-12-18T20:51:41.710Z,101934.84
2022-12-18T20:56:43.102Z,101973.16
2022-12-18T21:01:48.013Z,101967.00
2022-12-18T21:07:00.753Z,101964.19
2022-12-18T21:12:22.036Z,101962.41
2022-12-18T21:17:23.776Z,101956.88
2022-12-18T21:22:28.266Z,101946.50
2022-12-18T21:27:29.642Z,101954.00
2022-12-18T21:32:33.439Z,101951.44
2022-12-18T21:37:35.063Z,101948.75
2022-12-18T21:42:55.078Z,101971.47
2022-12-18T21:47:56.401Z,101955.19
2022-12-18T21:52:57.722Z,101948.03
2022-12-18T21:57:59.036Z,101959.59
2022-12-18T22:03:17.150Z,101946.88
2022-12-18T22:08:19.410Z,101933.69
2022-12-18T22:13:20.854Z,101923.34
2022-12-18T22:18:22.789Z,101919.97
2022-12-18T22:23:24.182Z,101907.81
2022-12-18T22:28:44.323Z,101901.72
2022-12-18T22:33:45.663Z,101900.63
2022-12-18T22:38:47.884Z,101909.72
2022-12-18T22:43:49.184Z,101911.47
2022-12-18T22:48:50.520Z,101896.66
2022-12-18T22:53:51.863Z,101898.25
2022-12-18T22:58:53.267Z,101886.09
2022-12-18T23:03:55.053Z,101879.16
2022-12-18T23:08:57.523Z,101882.44
2022-12-18T23:13:58.830Z,101882.38
2022-12-18T23:19:00.442Z,101872.78
2022-12-18T23:24:01.751Z,101858.13
2022-12-18T23:29:03.741Z,101864.75
2022-12-18T23:34:05.728Z,101844.31
2022-12-18T23:39:07.054Z,101851.19
2022-12-18T23:44:09.979Z,101861.44
2022-12-18T23:49:11.291Z,101846.06
2022-12-18T23:54:12.650Z,101839.31
2022-12-18T23:59:14.356Z,101828.22
